sensor_id;sensor_type;location;lat;lon;timestamp;P1;durP1;ratioP1;P2;durP2;ratioP2
19016;SDS011;9641;51.494;6.670;2022-08-07T00:01:12;3.43;;;2.53;;
19016;SDS011;9641;51.494;6.670;2022-08-07T00:03:39;4.80;;;2.23;;
19016;SDS011;9641;51.494;6.670;2022-08-07T00:06:06;2.90;;;2.57;;
19016;SDS011;9641;51.494;6.670;2022-08-07T00:08:33;2.87;;;2.40;;
19016;SDS011;9641;51.494;6.670;2022-08-07T00:11:01;11.23;;;7.87;;
19016;SDS011;9641;51.494;6.670;2022-08-07T00:13:38;5.33;;;3.30;;
19016;SDS011;9641;51.494;6.670;2022-08-07T00:16:07;3.70;;;2.47;;
19016;SDS011;9641;51.494;6.670;2022-08-07T00:18:34;3.77;;;2.30;;
19016;SDS011;9641;51.494;6.670;2022-08-07T00:21:02;2.97;;;2.60;;
19016;SDS011;9641;51.494;6.670;2022-08-07T00:23:32;3.63;;;2.50;;
19016;SDS011;9641;51.494;6.670;2022-08-07T00:26:02;3.17;;;2.70;;
19016;SDS011;9641;51.494;6.670;2022-08-07T00:28:30;4.93;;;2.60;;
19016;SDS011;9641;51.494;6.670;2022-08-07T00:30:57;4.83;;;2.40;;
19016;SDS011;9641;51.494;6.670;2022-08-07T00:33:26;3.93;;;2.80;;
19016;SDS011;9641;51.494;6.670;2022-08-07T00:35:54;3.77;;;2.57;;
19016;SDS011;9641;51.494;6.670;2022-08-07T00:38:21;2.70;;;2.50;;
19016;SDS011;9641;51.494;6.670;2022-08-07T00:40:49;3.07;;;2.50;;
19016;SDS011;9641;51.494;6.670;2022-08-07T00:43:16;3.40;;;2.50;;
19016;SDS011;9641;51.494;6.670;2022-08-07T00:45:43;2.90;;;2.60;;
19016;SDS011;9641;51.494;6.670;2022-08-07T00:48:10;4.43;;;2.40;;
19016;SDS011;9641;51.494;6.670;2022-08-07T00:50:38;4.63;;;2.80;;
19016;SDS011;9641;51.494;6.670;2022-08-07T00:55:36;2.60;;;2.40;;
19016;SDS011;9641;51.494;6.670;2022-08-07T00:58:03;2.87;;;2.67;;
19016;SDS011;9641;51.494;6.670;2022-08-07T01:00:30;3.97;;;2.37;;
19016;SDS011;9641;51.494;6.670;2022-08-07T01:02:57;4.87;;;3.13;;
19016;SDS011;9641;51.494;6.670;2022-08-07T01:05:24;3.03;;;2.60;;
19016;SDS011;9641;51.494;6.670;2022-08-07T01:07:56;4.67;;;2.50;;
19016;SDS011;9641;51.494;6.670;2022-08-07T01:10:23;3.53;;;2.50;;
19016;SDS011;9641;51.494;6.670;2022-08-07T01:12:50;2.60;;;2.40;;
19016;SDS011;9641;51.494;6.670;2022-08-07T01:15:19;3.90;;;2.90;;
19016;SDS011;9641;51.494;6.670;2022-08-07T01:17:46;3.10;;;2.90;;
19016;SDS011;9641;51.494;6.670;2022-08-07T01:20:13;4.00;;;2.57;;
19016;SDS011;9641;51.494;6.670;2022-08-07T01:22:42;3.97;;;2.80;;
19016;SDS011;9641;51.494;6.670;2022-08-07T01:25:10;2.80;;;2.60;;
19016;SDS011;9641;51.494;6.670;2022-08-07T01:27:38;3.07;;;2.70;;
19016;SDS011;9641;51.494;6.670;2022-08-07T01:30:05;2.93;;;2.43;;
19016;SDS011;9641;51.494;6.670;2022-08-07T01:32:33;5.53;;;3.00;;
19016;SDS011;9641;51.494;6.670;2022-08-07T01:35:01;2.57;;;2.33;;
19016;SDS011;9641;51.494;6.670;2022-08-07T01:37:29;2.63;;;2.43;;
19016;SDS011;9641;51.494;6.670;2022-08-07T01:39:59;3.30;;;3.00;;
19016;SDS011;9641;51.494;6.670;2022-08-07T01:42:30;5.10;;;3.40;;
19016;SDS011;9641;51.494;6.670;2022-08-07T01:44:57;4.03;;;2.90;;
19016;SDS011;9641;51.494;6.670;2022-08-07T01:47:25;5.77;;;2.90;;
19016;SDS011;9641;51.494;6.670;2022-08-07T01:49:52;3.87;;;2.90;;
19016;SDS011;9641;51.494;6.670;2022-08-07T01:52:19;3.97;;;2.70;;
19016;SDS011;9641;51.494;6.670;2022-08-07T01:54:49;2.93;;;2.60;;
19016;SDS011;9641;51.494;6.670;2022-08-07T01:57:22;4.70;;;3.17;;
19016;SDS011;9641;51.494;6.670;2022-08-07T01:59:55;3.77;;;2.90;;
19016;SDS011;9641;51.494;6.670;2022-08-07T02:02:28;5.43;;;3.27;;
19016;SDS011;9641;51.494;6.670;2022-08-07T02:05:01;4.20;;;3.20;;
19016;SDS011;9641;51.494;6.670;2022-08-07T02:07:34;3.60;;;3.30;;
19016;SDS011;9641;51.494;6.670;2022-08-07T02:10:04;4.83;;;3.60;;
19016;SDS011;9641;51.494;6.670;2022-08-07T02:12:40;4.00;;;3.53;;
19016;SDS011;9641;51.494;6.670;2022-08-07T02:15:15;3.83;;;3.40;;
19016;SDS011;9641;51.494;6.670;2022-08-07T02:17:46;6.67;;;3.90;;
19016;SDS011;9641;51.494;6.670;2022-08-07T02:20:14;7.00;;;3.57;;
19016;SDS011;9641;51.494;6.670;2022-08-07T02:22:43;7.90;;;3.50;;
19016;SDS011;9641;51.494;6.670;2022-08-07T02:25:12;5.00;;;3.27;;
19016;SDS011;9641;51.494;6.670;2022-08-07T02:27:43;4.87;;;3.40;;
19016;SDS011;9641;51.494;6.670;2022-08-07T02:30:12;5.57;;;3.50;;
19016;SDS011;9641;51.494;6.670;2022-08-07T02:32:40;4.53;;;3.57;;
19016;SDS011;9641;51.494;6.670;2022-08-07T02:35:07;5.23;;;3.63;;
19016;SDS011;9641;51.494;6.670;2022-08-07T02:37:36;3.80;;;3.07;;
19016;SDS011;9641;51.494;6.670;2022-08-07T02:40:09;4.27;;;3.10;;
19016;SDS011;9641;51.494;6.670;2022-08-07T02:42:36;5.87;;;3.40;;
19016;SDS011;9641;51.494;6.670;2022-08-07T02:45:05;7.13;;;3.87;;
19016;SDS011;9641;51.494;6.670;2022-08-07T02:47:36;5.07;;;3.37;;
19016;SDS011;9641;51.494;6.670;2022-08-07T02:50:10;3.93;;;3.17;;
19016;SDS011;9641;51.494;6.670;2022-08-07T02:52:40;4.67;;;3.60;;
19016;SDS011;9641;51.494;6.670;2022-08-07T02:55:14;5.47;;;3.70;;
19016;SDS011;9641;51.494;6.670;2022-08-07T02:57:44;5.00;;;3.50;;
19016;SDS011;9641;51.494;6.670;2022-08-07T03:00:14;6.37;;;3.43;;
19016;SDS011;9641;51.494;6.670;2022-08-07T03:02:43;5.80;;;3.20;;
19016;SDS011;9641;51.494;6.670;2022-08-07T03:05:14;5.93;;;3.57;;
19016;SDS011;9641;51.494;6.670;2022-08-07T03:07:42;3.87;;;3.47;;
19016;SDS011;9641;51.494;6.670;2022-08-07T03:10:12;5.70;;;3.87;;
19016;SDS011;9641;51.494;6.670;2022-08-07T03:12:41;4.20;;;3.37;;
19016;SDS011;9641;51.494;6.670;2022-08-07T03:15:11;4.43;;;3.60;;
19016;SDS011;9641;51.494;6.670;2022-08-07T03:17:40;3.90;;;3.50;;
19016;SDS011;9641;51.494;6.670;2022-08-07T03:20:09;5.67;;;3.23;;
19016;SDS011;9641;51.494;6.670;2022-08-07T03:22:38;5.37;;;3.40;;
19016;SDS011;9641;51.494;6.670;2022-08-07T03:25:08;4.50;;;3.63;;
19016;SDS011;9641;51.494;6.670;2022-08-07T03:27:39;4.33;;;3.13;;
19016;SDS011;9641;51.494;6.670;2022-08-07T03:30:13;3.90;;;3.40;;
19016;SDS011;9641;51.494;6.670;2022-08-07T03:32:42;3.50;;;3.00;;
19016;SDS011;9641;51.494;6.670;2022-08-07T03:35:15;4.33;;;3.50;;
19016;SDS011;9641;51.494;6.670;2022-08-07T03:37:49;6.30;;;3.60;;
19016;SDS011;9641;51.494;6.670;2022-08-07T03:40:20;5.37;;;3.07;;
19016;SDS011;9641;51.494;6.670;2022-08-07T03:42:49;5.07;;;3.57;;
19016;SDS011;9641;51.494;6.670;2022-08-07T03:45:18;3.77;;;3.37;;
19016;SDS011;9641;51.494;6.670;2022-08-07T03:47:46;3.50;;;3.00;;
19016;SDS011;9641;51.494;6.670;2022-08-07T03:50:14;3.50;;;3.20;;
19016;SDS011;9641;51.494;6.670;2022-08-07T03:52:44;4.27;;;3.10;;
19016;SDS011;9641;51.494;6.670;2022-08-07T03:55:12;5.10;;;3.27;;
19016;SDS011;9641;51.494;6.670;2022-08-07T03:57:43;5.67;;;3.90;;
19016;SDS011;9641;51.494;6.670;2022-08-07T04:00:12;5.73;;;4.17;;
19016;SDS011;9641;51.494;6.670;2022-08-07T04:02:47;7.20;;;3.63;;
19016;SDS011;9641;51.494;6.670;2022-08-07T04:05:23;4.00;;;3.33;;
19016;SDS011;9641;51.494;6.670;2022-08-07T04:07:50;4.60;;;3.60;;
19016;SDS011;9641;51.494;6.670;2022-08-07T04:10:22;4.53;;;3.80;;
19016;SDS011;9641;51.494;6.670;2022-08-07T04:12:49;3.90;;;3.50;;
19016;SDS011;9641;51.494;6.670;2022-08-07T04:15:17;5.80;;;3.33;;
19016;SDS011;9641;51.494;6.670;2022-08-07T04:17:46;5.07;;;3.67;;
19016;SDS011;9641;51.494;6.670;2022-08-07T04:20:14;4.13;;;3.73;;
19016;SDS011;9641;51.494;6.670;2022-08-07T04:22:43;4.90;;;3.50;;
19016;SDS011;9641;51.494;6.670;2022-08-07T04:25:13;3.80;;;3.40;;
19016;SDS011;9641;51.494;6.670;2022-08-07T04:27:44;5.00;;;3.63;;
19016;SDS011;9641;51.494;6.670;2022-08-07T04:30:12;4.57;;;3.20;;
19016;SDS011;9641;51.494;6.670;2022-08-07T04:32:49;4.37;;;3.97;;
19016;SDS011;9641;51.494;6.670;2022-08-07T04:35:20;4.20;;;3.70;;
19016;SDS011;9641;51.494;6.670;2022-08-07T04:37:48;6.20;;;3.33;;
19016;SDS011;9641;51.494;6.670;2022-08-07T04:40:15;4.00;;;3.37;;
19016;SDS011;9641;51.494;6.670;2022-08-07T04:42:44;3.70;;;3.30;;
19016;SDS011;9641;51.494;6.670;2022-08-07T04:45:10;3.47;;;3.10;;
19016;SDS011;9641;51.494;6.670;2022-08-07T04:47:40;5.33;;;3.50;;
19016;SDS011;9641;51.494;6.670;2022-08-07T04:50:17;6.30;;;3.53;;
19016;SDS011;9641;51.494;6.670;2022-08-07T04:53:07;5.70;;;3.50;;
19016;SDS011;9641;51.494;6.670;2022-08-07T04:55:42;6.60;;;3.83;;
19016;SDS011;9641;51.494;6.670;2022-08-07T04:58:18;3.83;;;3.37;;
19016;SDS011;9641;51.494;6.670;2022-08-07T05:00:50;4.83;;;3.50;;
19016;SDS011;9641;51.494;6.670;2022-08-07T05:03:24;4.03;;;3.20;;
19016;SDS011;9641;51.494;6.670;2022-08-07T05:05:59;3.33;;;2.93;;
19016;SDS011;9641;51.494;6.670;2022-08-07T05:08:34;3.23;;;2.97;;
19016;SDS011;9641;51.494;6.670;2022-08-07T05:11:08;4.00;;;3.23;;
19016;SDS011;9641;51.494;6.670;2022-08-07T05:13:40;4.17;;;3.43;;
19016;SDS011;9641;51.494;6.670;2022-08-07T05:16:11;4.43;;;3.40;;
19016;SDS011;9641;51.494;6.670;2022-08-07T05:18:43;4.67;;;3.50;;
19016;SDS011;9641;51.494;6.670;2022-08-07T05:21:15;6.33;;;3.87;;
19016;SDS011;9641;51.494;6.670;2022-08-07T05:23:46;6.53;;;4.27;;
19016;SDS011;9641;51.494;6.670;2022-08-07T05:26:16;5.00;;;3.90;;
19016;SDS011;9641;51.494;6.670;2022-08-07T05:28:48;5.17;;;4.23;;
19016;SDS011;9641;51.494;6.670;2022-08-07T05:31:21;5.07;;;3.93;;
19016;SDS011;9641;51.494;6.670;2022-08-07T05:33:50;5.07;;;4.00;;
19016;SDS011;9641;51.494;6.670;2022-08-07T05:36:20;5.17;;;4.10;;
19016;SDS011;9641;51.494;6.670;2022-08-07T05:38:49;5.37;;;4.23;;
19016;SDS011;9641;51.494;6.670;2022-08-07T05:41:18;7.77;;;4.27;;
19016;SDS011;9641;51.494;6.670;2022-08-07T05:43:51;4.43;;;4.03;;
19016;SDS011;9641;51.494;6.670;2022-08-07T05:46:20;7.73;;;4.00;;
19016;SDS011;9641;51.494;6.670;2022-08-07T05:48:48;7.97;;;4.40;;
19016;SDS011;9641;51.494;6.670;2022-08-07T05:51:17;5.70;;;4.00;;
19016;SDS011;9641;51.494;6.670;2022-08-07T05:53:46;5.83;;;4.33;;
19016;SDS011;9641;51.494;6.670;2022-08-07T05:56:14;6.57;;;4.03;;
19016;SDS011;9641;51.494;6.670;2022-08-07T05:58:46;7.07;;;4.00;;
19016;SDS011;9641;51.494;6.670;2022-08-07T06:01:14;5.83;;;3.93;;
19016;SDS011;9641;51.494;6.670;2022-08-07T06:03:46;5.60;;;4.10;;
19016;SDS011;9641;51.494;6.670;2022-08-07T06:06:20;7.27;;;4.43;;
19016;SDS011;9641;51.494;6.670;2022-08-07T06:08:53;5.70;;;4.07;;
19016;SDS011;9641;51.494;6.670;2022-08-07T06:11:21;5.03;;;4.53;;
19016;SDS011;9641;51.494;6.670;2022-08-07T06:13:49;7.63;;;4.60;;
19016;SDS011;9641;51.494;6.670;2022-08-07T06:16:16;8.87;;;4.50;;
19016;SDS011;9641;51.494;6.670;2022-08-07T06:18:45;4.60;;;4.20;;
19016;SDS011;9641;51.494;6.670;2022-08-07T06:21:14;4.27;;;3.67;;
19016;SDS011;9641;51.494;6.670;2022-08-07T06:23:42;6.20;;;4.50;;
19016;SDS011;9641;51.494;6.670;2022-08-07T06:26:11;6.87;;;4.60;;
19016;SDS011;9641;51.494;6.670;2022-08-07T06:28:49;5.67;;;4.23;;
19016;SDS011;9641;51.494;6.670;2022-08-07T06:31:18;9.03;;;4.20;;
19016;SDS011;9641;51.494;6.670;2022-08-07T06:33:45;6.47;;;4.47;;
19016;SDS011;9641;51.494;6.670;2022-08-07T06:36:13;5.10;;;4.07;;
19016;SDS011;9641;51.494;6.670;2022-08-07T06:38:46;7.97;;;3.83;;
19016;SDS011;9641;51.494;6.670;2022-08-07T06:41:16;6.60;;;3.97;;
19016;SDS011;9641;51.494;6.670;2022-08-07T06:43:46;7.93;;;4.13;;
19016;SDS011;9641;51.494;6.670;2022-08-07T06:46:18;5.07;;;3.50;;
19016;SDS011;9641;51.494;6.670;2022-08-07T06:48:45;5.57;;;3.73;;
19016;SDS011;9641;51.494;6.670;2022-08-07T06:51:19;4.17;;;3.70;;
19016;SDS011;9641;51.494;6.670;2022-08-07T06:53:56;4.90;;;3.60;;
19016;SDS011;9641;51.494;6.670;2022-08-07T06:56:30;4.83;;;3.27;;
19016;SDS011;9641;51.494;6.670;2022-08-07T06:59:19;5.00;;;3.50;;
19016;SDS011;9641;51.494;6.670;2022-08-07T07:01:54;5.90;;;3.63;;
19016;SDS011;9641;51.494;6.670;2022-08-07T07:04:23;3.77;;;3.13;;
19016;SDS011;9641;51.494;6.670;2022-08-07T07:06:51;5.53;;;3.20;;
19016;SDS011;9641;51.494;6.670;2022-08-07T07:09:22;4.97;;;3.40;;
19016;SDS011;9641;51.494;6.670;2022-08-07T07:11:56;4.07;;;3.60;;
19016;SDS011;9641;51.494;6.670;2022-08-07T07:14:29;5.10;;;3.20;;
19016;SDS011;9641;51.494;6.670;2022-08-07T07:17:02;3.10;;;2.80;;
19016;SDS011;9641;51.494;6.670;2022-08-07T07:19:35;5.53;;;3.30;;
19016;SDS011;9641;51.494;6.670;2022-08-07T07:22:06;3.30;;;2.73;;
19016;SDS011;9641;51.494;6.670;2022-08-07T07:24:33;4.80;;;3.10;;
19016;SDS011;9641;51.494;6.670;2022-08-07T07:27:02;4.30;;;3.17;;
19016;SDS011;9641;51.494;6.670;2022-08-07T07:29:33;5.13;;;2.87;;
19016;SDS011;9641;51.494;6.670;2022-08-07T07:32:04;4.33;;;2.67;;
19016;SDS011;9641;51.494;6.670;2022-08-07T07:34:37;4.43;;;2.93;;
19016;SDS011;9641;51.494;6.670;2022-08-07T07:37:07;5.00;;;2.87;;
19016;SDS011;9641;51.494;6.670;2022-08-07T07:39:38;6.60;;;2.80;;
19016;SDS011;9641;51.494;6.670;2022-08-07T07:42:09;2.67;;;2.47;;
19016;SDS011;9641;51.494;6.670;2022-08-07T07:44:38;5.93;;;2.70;;
19016;SDS011;9641;51.494;6.670;2022-08-07T07:47:09;5.73;;;3.00;;
19016;SDS011;9641;51.494;6.670;2022-08-07T07:49:39;5.20;;;3.47;;
19016;SDS011;9641;51.494;6.670;2022-08-07T07:52:08;4.43;;;2.73;;
19016;SDS011;9641;51.494;6.670;2022-08-07T07:54:37;4.40;;;2.87;;
19016;SDS011;9641;51.494;6.670;2022-08-07T07:57:07;4.47;;;2.47;;
19016;SDS011;9641;51.494;6.670;2022-08-07T07:59:39;5.00;;;2.70;;
19016;SDS011;9641;51.494;6.670;2022-08-07T08:02:08;4.23;;;2.83;;
19016;SDS011;9641;51.494;6.670;2022-08-07T08:04:37;8.70;;;3.33;;
19016;SDS011;9641;51.494;6.670;2022-08-07T08:07:06;5.17;;;3.07;;
19016;SDS011;9641;51.494;6.670;2022-08-07T08:09:34;9.03;;;3.57;;
19016;SDS011;9641;51.494;6.670;2022-08-07T08:12:04;5.40;;;2.90;;
19016;SDS011;9641;51.494;6.670;2022-08-07T08:14:34;7.83;;;2.87;;
19016;SDS011;9641;51.494;6.670;2022-08-07T08:17:01;7.10;;;2.80;;
19016;SDS011;9641;51.494;6.670;2022-08-07T08:19:30;4.87;;;2.70;;
19016;SDS011;9641;51.494;6.670;2022-08-07T08:22:00;3.83;;;2.10;;
19016;SDS011;9641;51.494;6.670;2022-08-07T08:24:45;3.60;;;2.10;;
19016;SDS011;9641;51.494;6.670;2022-08-07T08:27:35;5.37;;;2.47;;
19016;SDS011;9641;51.494;6.670;2022-08-07T08:30:07;5.70;;;1.90;;
19016;SDS011;9641;51.494;6.670;2022-08-07T08:32:38;3.77;;;1.77;;
19016;SDS011;9641;51.494;6.670;2022-08-07T08:35:08;2.67;;;1.53;;
19016;SDS011;9641;51.494;6.670;2022-08-07T08:37:39;2.00;;;1.47;;
19016;SDS011;9641;51.494;6.670;2022-08-07T08:40:12;4.43;;;1.60;;
19016;SDS011;9641;51.494;6.670;2022-08-07T08:42:52;3.53;;;1.30;;
19016;SDS011;9641;51.494;6.670;2022-08-07T08:45:25;1.40;;;1.20;;
19016;SDS011;9641;51.494;6.670;2022-08-07T08:48:01;1.60;;;1.00;;
19016;SDS011;9641;51.494;6.670;2022-08-07T08:50:34;1.10;;;1.00;;
19016;SDS011;9641;51.494;6.670;2022-08-07T08:53:08;1.53;;;0.80;;
19016;SDS011;9641;51.494;6.670;2022-08-07T08:55:43;0.97;;;0.70;;
19016;SDS011;9641;51.494;6.670;2022-08-07T08:58:17;0.83;;;0.80;;
19016;SDS011;9641;51.494;6.670;2022-08-07T09:00:53;0.70;;;0.70;;
19016;SDS011;9641;51.494;6.670;2022-08-07T09:03:27;0.93;;;0.63;;
19016;SDS011;9641;51.494;6.670;2022-08-07T09:06:05;2.43;;;0.63;;
19016;SDS011;9641;51.494;6.670;2022-08-07T09:08:38;0.53;;;0.53;;
19016;SDS011;9641;51.494;6.670;2022-08-07T09:11:16;0.73;;;0.60;;
19016;SDS011;9641;51.494;6.670;2022-08-07T09:13:53;2.07;;;0.60;;
19016;SDS011;9641;51.494;6.670;2022-08-07T09:16:35;0.93;;;0.93;;
19016;SDS011;9641;51.494;6.670;2022-08-07T09:19:13;0.70;;;0.67;;
19016;SDS011;9641;51.494;6.670;2022-08-07T09:21:52;1.10;;;0.57;;
19016;SDS011;9641;51.494;6.670;2022-08-07T09:24:33;1.43;;;0.70;;
19016;SDS011;9641;51.494;6.670;2022-08-07T09:27:18;1.93;;;0.70;;
19016;SDS011;9641;51.494;6.670;2022-08-07T09:29:56;0.60;;;0.50;;
19016;SDS011;9641;51.494;6.670;2022-08-07T09:32:45;0.53;;;0.53;;
19016;SDS011;9641;51.494;6.670;2022-08-07T09:35:32;3.00;;;0.80;;
19016;SDS011;9641;51.494;6.670;2022-08-07T09:38:08;1.10;;;0.60;;
19016;SDS011;9641;51.494;6.670;2022-08-07T09:40:49;1.33;;;0.60;;
19016;SDS011;9641;51.494;6.670;2022-08-07T09:43:26;0.70;;;0.50;;
19016;SDS011;9641;51.494;6.670;2022-08-07T09:46:03;1.10;;;0.60;;
19016;SDS011;9641;51.494;6.670;2022-08-07T09:48:45;1.20;;;0.60;;
19016;SDS011;9641;51.494;6.670;2022-08-07T09:51:28;0.50;;;0.40;;
19016;SDS011;9641;51.494;6.670;2022-08-07T09:54:06;1.27;;;0.60;;
19016;SDS011;9641;51.494;6.670;2022-08-07T10:00:04;9.23;;;6.57;;
19016;SDS011;9641;51.494;6.670;2022-08-07T10:02:59;0.60;;;0.60;;
19016;SDS011;9641;51.494;6.670;2022-08-07T10:09:11;2.27;;;0.50;;
19016;SDS011;9641;51.494;6.670;2022-08-07T10:11:53;0.85;;;0.50;;
19016;SDS011;9641;51.494;6.670;2022-08-07T10:14:40;0.70;;;0.60;;
19016;SDS011;9641;51.494;6.670;2022-08-07T10:17:28;1.40;;;0.80;;
19016;SDS011;9641;51.494;6.670;2022-08-07T10:20:24;1.02;;;0.90;;
19016;SDS011;9641;51.494;6.670;2022-08-07T10:25:56;1.95;;;0.60;;
19016;SDS011;9641;51.494;6.670;2022-08-07T10:28:40;1.10;;;0.80;;
19016;SDS011;9641;51.494;6.670;2022-08-07T10:31:37;0.60;;;0.60;;
19016;SDS011;9641;51.494;6.670;2022-08-07T10:34:17;0.50;;;0.50;;
19016;SDS011;9641;51.494;6.670;2022-08-07T10:36:58;1.95;;;0.50;;
19016;SDS011;9641;51.494;6.670;2022-08-07T10:39:55;1.27;;;0.80;;
19016;SDS011;9641;51.494;6.670;2022-08-07T10:42:39;0.70;;;0.60;;
19016;SDS011;9641;51.494;6.670;2022-08-07T10:45:23;1.00;;;0.43;;
19016;SDS011;9641;51.494;6.670;2022-08-07T10:47:58;3.40;;;0.80;;
19016;SDS011;9641;51.494;6.670;2022-08-07T10:50:38;0.60;;;0.60;;
19016;SDS011;9641;51.494;6.670;2022-08-07T10:53:14;0.75;;;0.70;;
19016;SDS011;9641;51.494;6.670;2022-08-07T10:55:51;0.70;;;0.70;;
19016;SDS011;9641;51.494;6.670;2022-08-07T11:01:33;0.60;;;0.50;;
19016;SDS011;9641;51.494;6.670;2022-08-07T11:04:09;2.60;;;0.50;;
19016;SDS011;9641;51.494;6.670;2022-08-07T11:07:00;0.80;;;0.40;;
19016;SDS011;9641;51.494;6.670;2022-08-07T11:09:42;1.55;;;0.52;;
19016;SDS011;9641;51.494;6.670;2022-08-07T11:12:19;1.85;;;0.50;;
19016;SDS011;9641;51.494;6.670;2022-08-07T11:14:57;0.90;;;0.50;;
19016;SDS011;9641;51.494;6.670;2022-08-07T11:17:37;1.02;;;0.57;;
19016;SDS011;9641;51.494;6.670;2022-08-07T11:20:12;1.45;;;0.55;;
19016;SDS011;9641;51.494;6.670;2022-08-07T11:22:48;0.50;;;0.50;;
19016;SDS011;9641;51.494;6.670;2022-08-07T11:25:29;1.77;;;0.60;;
19016;SDS011;9641;51.494;6.670;2022-08-07T11:28:05;0.60;;;0.50;;
19016;SDS011;9641;51.494;6.670;2022-08-07T11:30:44;1.35;;;0.60;;
19016;SDS011;9641;51.494;6.670;2022-08-07T11:33:20;0.75;;;0.55;;
19016;SDS011;9641;51.494;6.670;2022-08-07T11:35:56;0.73;;;0.73;;
19016;SDS011;9641;51.494;6.670;2022-08-07T11:38:42;0.40;;;0.40;;
19016;SDS011;9641;51.494;6.670;2022-08-07T11:41:18;0.85;;;0.40;;
19016;SDS011;9641;51.494;6.670;2022-08-07T11:43:56;0.50;;;0.50;;
19016;SDS011;9641;51.494;6.670;2022-08-07T11:46:35;0.50;;;0.50;;
19016;SDS011;9641;51.494;6.670;2022-08-07T11:49:22;0.98;;;0.70;;
19016;SDS011;9641;51.494;6.670;2022-08-07T11:52:01;1.38;;;0.65;;
19016;SDS011;9641;51.494;6.670;2022-08-07T11:54:44;0.68;;;0.50;;
19016;SDS011;9641;51.494;6.670;2022-08-07T11:57:31;0.80;;;0.47;;
19016;SDS011;9641;51.494;6.670;2022-08-07T12:00:14;0.63;;;0.47;;
19016;SDS011;9641;51.494;6.670;2022-08-07T12:05:56;0.50;;;0.50;;
19016;SDS011;9641;51.494;6.670;2022-08-07T12:08:39;6.22;;;0.75;;
19016;SDS011;9641;51.494;6.670;2022-08-07T12:11:33;1.10;;;0.57;;
19016;SDS011;9641;51.494;6.670;2022-08-07T12:14:07;0.75;;;0.50;;
19016;SDS011;9641;51.494;6.670;2022-08-07T12:16:41;0.50;;;0.50;;
19016;SDS011;9641;51.494;6.670;2022-08-07T12:19:16;0.57;;;0.55;;
19016;SDS011;9641;51.494;6.670;2022-08-07T12:21:50;1.73;;;0.50;;
19016;SDS011;9641;51.494;6.670;2022-08-07T12:24:24;0.60;;;0.57;;
19016;SDS011;9641;51.494;6.670;2022-08-07T12:27:13;0.50;;;0.50;;
19016;SDS011;9641;51.494;6.670;2022-08-07T12:29:47;0.70;;;0.50;;
19016;SDS011;9641;51.494;6.670;2022-08-07T12:32:24;1.50;;;0.40;;
19016;SDS011;9641;51.494;6.670;2022-08-07T12:34:56;0.68;;;0.43;;
19016;SDS011;9641;51.494;6.670;2022-08-07T12:37:25;1.70;;;0.45;;
19016;SDS011;9641;51.494;6.670;2022-08-07T12:39:53;0.40;;;0.30;;
19016;SDS011;9641;51.494;6.670;2022-08-07T12:42:25;0.73;;;0.60;;
19016;SDS011;9641;51.494;6.670;2022-08-07T12:44:56;1.42;;;0.85;;
19016;SDS011;9641;51.494;6.670;2022-08-07T12:47:31;1.55;;;0.70;;
19016;SDS011;9641;51.494;6.670;2022-08-07T12:50:05;0.73;;;0.40;;
19016;SDS011;9641;51.494;6.670;2022-08-07T12:52:40;0.57;;;0.40;;
19016;SDS011;9641;51.494;6.670;2022-08-07T12:55:16;0.52;;;0.52;;
19016;SDS011;9641;51.494;6.670;2022-08-07T12:57:47;0.63;;;0.40;;
19016;SDS011;9641;51.494;6.670;2022-08-07T13:00:16;3.85;;;0.60;;
19016;SDS011;9641;51.494;6.670;2022-08-07T13:05:52;0.40;;;0.32;;
19016;SDS011;9641;51.494;6.670;2022-08-07T13:08:28;1.00;;;0.70;;
19016;SDS011;9641;51.494;6.670;2022-08-07T13:11:16;0.50;;;0.50;;
19016;SDS011;9641;51.494;6.670;2022-08-07T13:13:54;0.95;;;0.70;;
19016;SDS011;9641;51.494;6.670;2022-08-07T13:16:34;1.05;;;0.90;;
19016;SDS011;9641;51.494;6.670;2022-08-07T13:19:15;1.85;;;0.50;;
19016;SDS011;9641;51.494;6.670;2022-08-07T13:21:53;1.50;;;0.50;;
19016;SDS011;9641;51.494;6.670;2022-08-07T13:24:29;0.93;;;0.47;;
19016;SDS011;9641;51.494;6.670;2022-08-07T13:27:07;0.45;;;0.40;;
19016;SDS011;9641;51.494;6.670;2022-08-07T13:29:42;3.30;;;0.55;;
19016;SDS011;9641;51.494;6.670;2022-08-07T13:32:17;1.85;;;0.70;;
19016;SDS011;9641;51.494;6.670;2022-08-07T13:34:55;0.75;;;0.50;;
19016;SDS011;9641;51.494;6.670;2022-08-07T13:37:28;0.40;;;0.40;;
19016;SDS011;9641;51.494;6.670;2022-08-07T13:40:05;0.40;;;0.40;;
19016;SDS011;9641;51.494;6.670;2022-08-07T13:42:40;0.73;;;0.40;;
19016;SDS011;9641;51.494;6.670;2022-08-07T13:45:09;0.45;;;0.45;;
19016;SDS011;9641;51.494;6.670;2022-08-07T13:47:38;0.30;;;0.30;;
19016;SDS011;9641;51.494;6.670;2022-08-07T13:50:11;1.13;;;0.38;;
19016;SDS011;9641;51.494;6.670;2022-08-07T13:52:39;0.65;;;0.60;;
19016;SDS011;9641;51.494;6.670;2022-08-07T13:55:10;1.17;;;0.40;;
19016;SDS011;9641;51.494;6.670;2022-08-07T13:57:39;0.30;;;0.30;;
19016;SDS011;9641;51.494;6.670;2022-08-07T14:00:10;1.67;;;0.50;;
19016;SDS011;9641;51.494;6.670;2022-08-07T14:02:41;1.40;;;0.50;;
19016;SDS011;9641;51.494;6.670;2022-08-07T14:05:12;2.58;;;0.40;;
19016;SDS011;9641;51.494;6.670;2022-08-07T14:07:46;2.45;;;0.60;;
19016;SDS011;9641;51.494;6.670;2022-08-07T14:10:15;1.02;;;0.52;;
19016;SDS011;9641;51.494;6.670;2022-08-07T14:12:43;0.32;;;0.32;;
19016;SDS011;9641;51.494;6.670;2022-08-07T14:15:17;0.30;;;0.30;;
19016;SDS011;9641;51.494;6.670;2022-08-07T14:17:51;1.02;;;0.50;;
19016;SDS011;9641;51.494;6.670;2022-08-07T14:20:23;0.88;;;0.60;;
19016;SDS011;9641;51.494;6.670;2022-08-07T14:22:53;0.52;;;0.38;;
19016;SDS011;9641;51.494;6.670;2022-08-07T14:25:30;1.23;;;0.47;;
19016;SDS011;9641;51.494;6.670;2022-08-07T14:28:02;0.75;;;0.43;;
19016;SDS011;9641;51.494;6.670;2022-08-07T14:30:32;2.40;;;0.40;;
19016;SDS011;9641;51.494;6.670;2022-08-07T14:33:01;0.60;;;0.60;;
19016;SDS011;9641;51.494;6.670;2022-08-07T14:35:35;2.33;;;0.70;;
19016;SDS011;9641;51.494;6.670;2022-08-07T14:38:03;0.75;;;0.40;;
19016;SDS011;9641;51.494;6.670;2022-08-07T14:40:33;1.60;;;0.40;;
19016;SDS011;9641;51.494;6.670;2022-08-07T14:43:02;0.38;;;0.38;;
19016;SDS011;9641;51.494;6.670;2022-08-07T14:45:32;0.50;;;0.40;;
19016;SDS011;9641;51.494;6.670;2022-08-07T14:48:15;1.10;;;0.50;;
19016;SDS011;9641;51.494;6.670;2022-08-07T14:50:52;1.95;;;0.47;;
19016;SDS011;9641;51.494;6.670;2022-08-07T14:53:22;0.80;;;0.50;;
19016;SDS011;9641;51.494;6.670;2022-08-07T14:55:51;0.70;;;0.45;;
19016;SDS011;9641;51.494;6.670;2022-08-07T14:58:26;1.65;;;0.80;;
19016;SDS011;9641;51.494;6.670;2022-08-07T15:00:57;0.60;;;0.50;;
19016;SDS011;9641;51.494;6.670;2022-08-07T15:03:25;0.20;;;0.20;;
19016;SDS011;9641;51.494;6.670;2022-08-07T15:05:56;0.28;;;0.28;;
19016;SDS011;9641;51.494;6.670;2022-08-07T15:08:25;0.68;;;0.40;;
19016;SDS011;9641;51.494;6.670;2022-08-07T15:10:55;0.82;;;0.30;;
19016;SDS011;9641;51.494;6.670;2022-08-07T15:13:24;0.45;;;0.32;;
19016;SDS011;9641;51.494;6.670;2022-08-07T15:16:01;0.85;;;0.60;;
19016;SDS011;9641;51.494;6.670;2022-08-07T15:18:30;1.85;;;0.50;;
19016;SDS011;9641;51.494;6.670;2022-08-07T15:23:52;0.57;;;0.38;;
19016;SDS011;9641;51.494;6.670;2022-08-07T15:26:32;0.50;;;0.50;;
19016;SDS011;9641;51.494;6.670;2022-08-07T15:29:02;2.67;;;0.50;;
19016;SDS011;9641;51.494;6.670;2022-08-07T15:31:32;0.80;;;0.45;;
19016;SDS011;9641;51.494;6.670;2022-08-07T15:34:01;2.67;;;0.60;;
19016;SDS011;9641;51.494;6.670;2022-08-07T15:36:31;0.40;;;0.40;;
19016;SDS011;9641;51.494;6.670;2022-08-07T15:39:00;1.08;;;0.50;;
19016;SDS011;9641;51.494;6.670;2022-08-07T15:41:31;1.13;;;0.52;;
19016;SDS011;9641;51.494;6.670;2022-08-07T15:44:04;0.50;;;0.50;;
19016;SDS011;9641;51.494;6.670;2022-08-07T15:46:36;1.02;;;0.60;;
19016;SDS011;9641;51.494;6.670;2022-08-07T15:49:05;0.50;;;0.50;;
19016;SDS011;9641;51.494;6.670;2022-08-07T15:51:36;0.63;;;0.47;;
19016;SDS011;9641;51.494;6.670;2022-08-07T15:54:08;0.40;;;0.40;;
19016;SDS011;9641;51.494;6.670;2022-08-07T15:56:37;0.50;;;0.50;;
19016;SDS011;9641;51.494;6.670;2022-08-07T15:59:06;0.93;;;0.38;;